sensor_id;sensor_type;location;lat;lon;timestamp;P1;durP1;ratioP1;P2;durP2;ratioP2
36923;SDS011;22841;50.252;18.688;2023-06-22T00:00:49;21.52;;;11.82;;
36923;SDS011;22841;50.252;18.688;2023-06-22T00:03:17;13.73;;;10.80;;
36923;SDS011;22841;50.252;18.688;2023-06-22T00:05:44;18.17;;;11.35;;
36923;SDS011;22841;50.252;18.688;2023-06-22T00:08:11;18.35;;;11.32;;
36923;SDS011;22841;50.252;18.688;2023-06-22T00:10:37;17.98;;;10.73;;
36923;SDS011;22841;50.252;18.688;2023-06-22T00:13:03;24.05;;;10.50;;
36923;SDS011;22841;50.252;18.688;2023-06-22T00:15:30;19.48;;;11.50;;
36923;SDS011;22841;50.252;18.688;2023-06-22T00:17:56;30.58;;;19.17;;
36923;SDS011;22841;50.252;18.688;2023-06-22T00:20:23;48.70;;;29.55;;
36923;SDS011;22841;50.252;18.688;2023-06-22T00:22:56;29.65;;;20.67;;
36923;SDS011;22841;50.252;18.688;2023-06-22T00:25:23;33.22;;;18.55;;
36923;SDS011;22841;50.252;18.688;2023-06-22T00:27:50;25.60;;;13.27;;
36923;SDS011;22841;50.252;18.688;2023-06-22T00:30:16;19.48;;;11.80;;
36923;SDS011;22841;50.252;18.688;2023-06-22T00:32:44;19.83;;;12.32;;
36923;SDS011;22841;50.252;18.688;2023-06-22T00:35:11;22.52;;;12.27;;
36923;SDS011;22841;50.252;18.688;2023-06-22T00:37:38;16.88;;;12.07;;
36923;SDS011;22841;50.252;18.688;2023-06-22T00:40:08;22.23;;;11.32;;
36923;SDS011;22841;50.252;18.688;2023-06-22T00:42:40;19.35;;;11.43;;
36923;SDS011;22841;50.252;18.688;2023-06-22T00:45:07;23.83;;;11.27;;
36923;SDS011;22841;50.252;18.688;2023-06-22T00:47:36;21.40;;;11.63;;
36923;SDS011;22841;50.252;18.688;2023-06-22T00:50:05;20.92;;;11.25;;
36923;SDS011;22841;50.252;18.688;2023-06-22T00:52:33;19.15;;;10.75;;
36923;SDS011;22841;50.252;18.688;2023-06-22T00:55:01;22.25;;;12.73;;
36923;SDS011;22841;50.252;18.688;2023-06-22T00:57:28;30.25;;;15.75;;
36923;SDS011;22841;50.252;18.688;2023-06-22T00:59:55;34.13;;;14.98;;
36923;SDS011;22841;50.252;18.688;2023-06-22T01:02:21;21.25;;;11.73;;
36923;SDS011;22841;50.252;18.688;2023-06-22T01:04:47;18.45;;;11.15;;
36923;SDS011;22841;50.252;18.688;2023-06-22T01:10:02;20.55;;;10.63;;
36923;SDS011;22841;50.252;18.688;2023-06-22T01:12:42;17.40;;;10.90;;
36923;SDS011;22841;50.252;18.688;2023-06-22T01:15:16;18.45;;;10.35;;
36923;SDS011;22841;50.252;18.688;2023-06-22T01:17:48;27.38;;;10.10;;
36923;SDS011;22841;50.252;18.688;2023-06-22T01:20:17;20.05;;;10.43;;
36923;SDS011;22841;50.252;18.688;2023-06-22T01:25:26;21.85;;;11.10;;
36923;SDS011;22841;50.252;18.688;2023-06-22T01:28:08;15.88;;;9.88;;
36923;SDS011;22841;50.252;18.688;2023-06-22T01:30:41;21.77;;;11.73;;
36923;SDS011;22841;50.252;18.688;2023-06-22T01:33:10;21.88;;;10.32;;
36923;SDS011;22841;50.252;18.688;2023-06-22T01:35:38;21.25;;;10.38;;
36923;SDS011;22841;50.252;18.688;2023-06-22T01:38:05;18.95;;;9.63;;
36923;SDS011;22841;50.252;18.688;2023-06-22T01:40:32;21.42;;;10.38;;
36923;SDS011;22841;50.252;18.688;2023-06-22T01:43:03;17.60;;;9.38;;
36923;SDS011;22841;50.252;18.688;2023-06-22T01:45:30;17.88;;;9.70;;
36923;SDS011;22841;50.252;18.688;2023-06-22T01:47:56;21.60;;;9.10;;
36923;SDS011;22841;50.252;18.688;2023-06-22T01:50:22;28.85;;;9.65;;
36923;SDS011;22841;50.252;18.688;2023-06-22T01:52:49;17.92;;;8.73;;
36923;SDS011;22841;50.252;18.688;2023-06-22T01:55:16;19.60;;;9.48;;
36923;SDS011;22841;50.252;18.688;2023-06-22T01:57:42;25.85;;;8.63;;
36923;SDS011;22841;50.252;18.688;2023-06-22T02:00:12;16.42;;;9.20;;
36923;SDS011;22841;50.252;18.688;2023-06-22T02:02:43;18.77;;;8.45;;
36923;SDS011;22841;50.252;18.688;2023-06-22T02:05:22;19.75;;;9.07;;
36923;SDS011;22841;50.252;18.688;2023-06-22T02:08:00;22.42;;;8.23;;
36923;SDS011;22841;50.252;18.688;2023-06-22T02:10:34;21.27;;;8.65;;
36923;SDS011;22841;50.252;18.688;2023-06-22T02:13:05;17.25;;;8.75;;
36923;SDS011;22841;50.252;18.688;2023-06-22T02:15:33;19.08;;;8.88;;
36923;SDS011;22841;50.252;18.688;2023-06-22T02:17:59;17.70;;;9.35;;
36923;SDS011;22841;50.252;18.688;2023-06-22T02:20:26;17.55;;;8.30;;
36923;SDS011;22841;50.252;18.688;2023-06-22T02:22:52;19.50;;;9.23;;
36923;SDS011;22841;50.252;18.688;2023-06-22T02:25:18;17.15;;;9.85;;
36923;SDS011;22841;50.252;18.688;2023-06-22T02:27:45;20.38;;;9.23;;
36923;SDS011;22841;50.252;18.688;2023-06-22T02:30:11;15.50;;;10.05;;
36923;SDS011;22841;50.252;18.688;2023-06-22T02:32:38;17.08;;;9.85;;
36923;SDS011;22841;50.252;18.688;2023-06-22T02:35:07;15.88;;;8.75;;
36923;SDS011;22841;50.252;18.688;2023-06-22T02:37:36;20.45;;;9.00;;
36923;SDS011;22841;50.252;18.688;2023-06-22T02:40:07;16.10;;;9.25;;
36923;SDS011;22841;50.252;18.688;2023-06-22T02:42:34;18.50;;;9.95;;
36923;SDS011;22841;50.252;18.688;2023-06-22T02:45:01;18.05;;;9.10;;
36923;SDS011;22841;50.252;18.688;2023-06-22T02:47:27;20.27;;;9.45;;
36923;SDS011;22841;50.252;18.688;2023-06-22T02:49:53;25.33;;;8.95;;
36923;SDS011;22841;50.252;18.688;2023-06-22T02:52:19;18.50;;;9.82;;
36923;SDS011;22841;50.252;18.688;2023-06-22T02:54:46;16.42;;;9.30;;
36923;SDS011;22841;50.252;18.688;2023-06-22T02:57:12;25.08;;;9.15;;
36923;SDS011;22841;50.252;18.688;2023-06-22T02:59:40;17.42;;;10.55;;
36923;SDS011;22841;50.252;18.688;2023-06-22T03:02:07;24.08;;;9.40;;
36923;SDS011;22841;50.252;18.688;2023-06-22T03:04:34;24.08;;;10.23;;
36923;SDS011;22841;50.252;18.688;2023-06-22T03:07:01;17.15;;;9.00;;
36923;SDS011;22841;50.252;18.688;2023-06-22T03:09:27;23.50;;;9.75;;
36923;SDS011;22841;50.252;18.688;2023-06-22T03:11:54;21.30;;;10.77;;
36923;SDS011;22841;50.252;18.688;2023-06-22T03:14:20;17.23;;;10.40;;
36923;SDS011;22841;50.252;18.688;2023-06-22T03:16:46;21.65;;;11.20;;
36923;SDS011;22841;50.252;18.688;2023-06-22T03:19:13;23.13;;;11.48;;
36923;SDS011;22841;50.252;18.688;2023-06-22T03:21:39;22.38;;;11.38;;
36923;SDS011;22841;50.252;18.688;2023-06-22T03:24:06;20.40;;;10.43;;
36923;SDS011;22841;50.252;18.688;2023-06-22T03:26:33;17.15;;;10.20;;
36923;SDS011;22841;50.252;18.688;2023-06-22T03:29:00;25.33;;;10.68;;
36923;SDS011;22841;50.252;18.688;2023-06-22T03:31:26;22.95;;;10.63;;
36923;SDS011;22841;50.252;18.688;2023-06-22T03:33:52;32.60;;;13.07;;
36923;SDS011;22841;50.252;18.688;2023-06-22T03:36:18;22.58;;;10.50;;
36923;SDS011;22841;50.252;18.688;2023-06-22T03:38:48;26.08;;;11.65;;
36923;SDS011;22841;50.252;18.688;2023-06-22T03:41:15;25.08;;;13.38;;
36923;SDS011;22841;50.252;18.688;2023-06-22T03:43:41;22.02;;;13.18;;
36923;SDS011;22841;50.252;18.688;2023-06-22T03:46:08;24.25;;;14.35;;
36923;SDS011;22841;50.252;18.688;2023-06-22T03:48:34;22.10;;;12.98;;
36923;SDS011;22841;50.252;18.688;2023-06-22T03:51:00;31.88;;;15.65;;
36923;SDS011;22841;50.252;18.688;2023-06-22T03:53:27;20.25;;;14.77;;
36923;SDS011;22841;50.252;18.688;2023-06-22T03:55:53;44.78;;;18.52;;
36923;SDS011;22841;50.252;18.688;2023-06-22T03:58:19;24.83;;;15.60;;
36923;SDS011;22841;50.252;18.688;2023-06-22T04:00:47;29.75;;;16.73;;
36923;SDS011;22841;50.252;18.688;2023-06-22T04:03:14;29.35;;;18.02;;
36923;SDS011;22841;50.252;18.688;2023-06-22T04:05:41;29.85;;;17.33;;
36923;SDS011;22841;50.252;18.688;2023-06-22T04:08:07;34.53;;;20.13;;
36923;SDS011;22841;50.252;18.688;2023-06-22T04:10:33;35.33;;;21.83;;
36923;SDS011;22841;50.252;18.688;2023-06-22T04:13:00;30.55;;;19.80;;
36923;SDS011;22841;50.252;18.688;2023-06-22T04:15:26;35.78;;;21.30;;
36923;SDS011;22841;50.252;18.688;2023-06-22T04:17:54;28.60;;;19.38;;
36923;SDS011;22841;50.252;18.688;2023-06-22T04:20:21;39.60;;;24.10;;
36923;SDS011;22841;50.252;18.688;2023-06-22T04:22:47;38.38;;;22.40;;
36923;SDS011;22841;50.252;18.688;2023-06-22T04:25:13;33.42;;;23.73;;
36923;SDS011;22841;50.252;18.688;2023-06-22T04:27:39;37.85;;;25.48;;
36923;SDS011;22841;50.252;18.688;2023-06-22T04:30:06;37.97;;;23.58;;
36923;SDS011;22841;50.252;18.688;2023-06-22T04:32:34;38.70;;;24.17;;
36923;SDS011;22841;50.252;18.688;2023-06-22T04:35:02;30.67;;;21.50;;
36923;SDS011;22841;50.252;18.688;2023-06-22T04:37:30;44.35;;;25.08;;
36923;SDS011;22841;50.252;18.688;2023-06-22T04:39:57;33.00;;;24.02;;
36923;SDS011;22841;50.252;18.688;2023-06-22T04:42:24;31.23;;;24.17;;
36923;SDS011;22841;50.252;18.688;2023-06-22T04:44:54;35.08;;;25.10;;
36923;SDS011;22841;50.252;18.688;2023-06-22T04:47:20;33.22;;;24.02;;
36923;SDS011;22841;50.252;18.688;2023-06-22T04:49:46;31.73;;;25.15;;
36923;SDS011;22841;50.252;18.688;2023-06-22T04:52:13;33.08;;;23.67;;
36923;SDS011;22841;50.252;18.688;2023-06-22T04:54:45;36.30;;;23.60;;
36923;SDS011;22841;50.252;18.688;2023-06-22T04:57:16;32.40;;;24.73;;
36923;SDS011;22841;50.252;18.688;2023-06-22T04:59:42;37.08;;;26.30;;
36923;SDS011;22841;50.252;18.688;2023-06-22T05:02:08;34.03;;;24.98;;
36923;SDS011;22841;50.252;18.688;2023-06-22T05:04:34;35.30;;;25.67;;
36923;SDS011;22841;50.252;18.688;2023-06-22T05:09:32;33.88;;;26.52;;
36923;SDS011;22841;50.252;18.688;2023-06-22T05:11:59;33.83;;;28.38;;
36923;SDS011;22841;50.252;18.688;2023-06-22T05:14:28;32.55;;;24.90;;
36923;SDS011;22841;50.252;18.688;2023-06-22T05:16:55;37.17;;;25.15;;
36923;SDS011;22841;50.252;18.688;2023-06-22T05:19:24;31.25;;;24.42;;
36923;SDS011;22841;50.252;18.688;2023-06-22T05:21:56;31.17;;;25.63;;
36923;SDS011;22841;50.252;18.688;2023-06-22T05:24:23;34.50;;;26.98;;
36923;SDS011;22841;50.252;18.688;2023-06-22T05:26:49;33.92;;;25.27;;
36923;SDS011;22841;50.252;18.688;2023-06-22T05:29:15;32.20;;;26.17;;
36923;SDS011;22841;50.252;18.688;2023-06-22T05:31:41;35.08;;;26.63;;
36923;SDS011;22841;50.252;18.688;2023-06-22T05:34:07;37.25;;;28.65;;
36923;SDS011;22841;50.252;18.688;2023-06-22T05:36:33;32.25;;;25.50;;
36923;SDS011;22841;50.252;18.688;2023-06-22T05:38:59;36.30;;;26.08;;
36923;SDS011;22841;50.252;18.688;2023-06-22T05:41:38;34.75;;;26.85;;
36923;SDS011;22841;50.252;18.688;2023-06-22T05:44:04;32.67;;;26.20;;
36923;SDS011;22841;50.252;18.688;2023-06-22T05:46:30;38.65;;;27.83;;
36923;SDS011;22841;50.252;18.688;2023-06-22T05:48:56;38.47;;;26.88;;
36923;SDS011;22841;50.252;18.688;2023-06-22T05:51:22;34.58;;;25.38;;
36923;SDS011;22841;50.252;18.688;2023-06-22T05:53:48;36.35;;;25.95;;
36923;SDS011;22841;50.252;18.688;2023-06-22T05:56:15;35.05;;;25.27;;
36923;SDS011;22841;50.252;18.688;2023-06-22T05:58:42;32.47;;;26.35;;
36923;SDS011;22841;50.252;18.688;2023-06-22T06:01:08;31.65;;;25.27;;
36923;SDS011;22841;50.252;18.688;2023-06-22T06:03:35;28.67;;;24.45;;
36923;SDS011;22841;50.252;18.688;2023-06-22T06:06:07;29.98;;;25.52;;
36923;SDS011;22841;50.252;18.688;2023-06-22T06:08:33;31.45;;;24.60;;
36923;SDS011;22841;50.252;18.688;2023-06-22T06:11:00;30.13;;;25.33;;
36923;SDS011;22841;50.252;18.688;2023-06-22T06:13:26;27.30;;;23.77;;
36923;SDS011;22841;50.252;18.688;2023-06-22T06:15:52;31.17;;;22.85;;
36923;SDS011;22841;50.252;18.688;2023-06-22T06:18:20;29.75;;;22.48;;
36923;SDS011;22841;50.252;18.688;2023-06-22T06:20:46;28.20;;;22.10;;
36923;SDS011;22841;50.252;18.688;2023-06-22T06:23:12;31.58;;;23.70;;
36923;SDS011;22841;50.252;18.688;2023-06-22T06:25:39;29.90;;;21.92;;
36923;SDS011;22841;50.252;18.688;2023-06-22T06:28:05;26.27;;;20.70;;
36923;SDS011;22841;50.252;18.688;2023-06-22T06:30:31;30.58;;;22.73;;
36923;SDS011;22841;50.252;18.688;2023-06-22T06:32:57;24.27;;;19.73;;
36923;SDS011;22841;50.252;18.688;2023-06-22T06:35:24;27.65;;;21.45;;
36923;SDS011;22841;50.252;18.688;2023-06-22T06:37:50;25.00;;;19.60;;
36923;SDS011;22841;50.252;18.688;2023-06-22T06:40:17;30.90;;;21.30;;
36923;SDS011;22841;50.252;18.688;2023-06-22T06:42:44;25.55;;;19.65;;
36923;SDS011;22841;50.252;18.688;2023-06-22T06:45:12;24.60;;;19.75;;
36923;SDS011;22841;50.252;18.688;2023-06-22T06:50:09;25.10;;;18.92;;
36923;SDS011;22841;50.252;18.688;2023-06-22T06:52:35;24.58;;;19.23;;
36923;SDS011;22841;50.252;18.688;2023-06-22T06:55:02;26.42;;;19.55;;
36923;SDS011;22841;50.252;18.688;2023-06-22T06:57:38;25.00;;;20.13;;
36923;SDS011;22841;50.252;18.688;2023-06-22T07:00:05;24.05;;;19.10;;
36923;SDS011;22841;50.252;18.688;2023-06-22T07:02:35;25.73;;;18.38;;
36923;SDS011;22841;50.252;18.688;2023-06-22T07:05:01;21.80;;;18.05;;
36923;SDS011;22841;50.252;18.688;2023-06-22T07:07:29;20.70;;;18.50;;
36923;SDS011;22841;50.252;18.688;2023-06-22T07:09:57;23.42;;;17.80;;
36923;SDS011;22841;50.252;18.688;2023-06-22T07:12:23;22.98;;;18.25;;
36923;SDS011;22841;50.252;18.688;2023-06-22T07:14:49;26.42;;;17.92;;
36923;SDS011;22841;50.252;18.688;2023-06-22T07:17:16;26.20;;;19.70;;
36923;SDS011;22841;50.252;18.688;2023-06-22T07:19:42;28.85;;;18.70;;
36923;SDS011;22841;50.252;18.688;2023-06-22T07:22:08;22.95;;;16.33;;
36923;SDS011;22841;50.252;18.688;2023-06-22T07:24:34;22.75;;;16.30;;
36923;SDS011;22841;50.252;18.688;2023-06-22T07:27:00;21.45;;;15.82;;
36923;SDS011;22841;50.252;18.688;2023-06-22T07:29:28;21.25;;;16.85;;
36923;SDS011;22841;50.252;18.688;2023-06-22T07:31:55;20.33;;;16.80;;
36923;SDS011;22841;50.252;18.688;2023-06-22T07:34:22;20.38;;;16.52;;
36923;SDS011;22841;50.252;18.688;2023-06-22T07:36:48;26.15;;;16.20;;
36923;SDS011;22841;50.252;18.688;2023-06-22T07:39:14;25.73;;;16.38;;
36923;SDS011;22841;50.252;18.688;2023-06-22T07:41:40;17.63;;;14.43;;
36923;SDS011;22841;50.252;18.688;2023-06-22T07:44:06;19.83;;;14.93;;
36923;SDS011;22841;50.252;18.688;2023-06-22T07:46:33;19.27;;;15.45;;
36923;SDS011;22841;50.252;18.688;2023-06-22T07:48:59;21.08;;;14.38;;
36923;SDS011;22841;50.252;18.688;2023-06-22T07:51:26;17.13;;;13.50;;
36923;SDS011;22841;50.252;18.688;2023-06-22T07:53:52;13.75;;;12.32;;
36923;SDS011;22841;50.252;18.688;2023-06-22T07:56:19;16.77;;;13.57;;
36923;SDS011;22841;50.252;18.688;2023-06-22T07:58:46;13.43;;;12.05;;
36923;SDS011;22841;50.252;18.688;2023-06-22T08:01:13;17.92;;;12.75;;
36923;SDS011;22841;50.252;18.688;2023-06-22T08:03:39;23.75;;;13.45;;
36923;SDS011;22841;50.252;18.688;2023-06-22T08:06:06;15.27;;;12.57;;
36923;SDS011;22841;50.252;18.688;2023-06-22T08:08:35;15.90;;;12.15;;
36923;SDS011;22841;50.252;18.688;2023-06-22T08:11:01;23.98;;;13.00;;
36923;SDS011;22841;50.252;18.688;2023-06-22T08:13:28;17.92;;;12.20;;
36923;SDS011;22841;50.252;18.688;2023-06-22T08:15:54;17.38;;;11.45;;
36923;SDS011;22841;50.252;18.688;2023-06-22T08:18:20;13.10;;;11.80;;
36923;SDS011;22841;50.252;18.688;2023-06-22T08:20:47;16.23;;;10.48;;
36923;SDS011;22841;50.252;18.688;2023-06-22T08:23:13;11.77;;;10.48;;
36923;SDS011;22841;50.252;18.688;2023-06-22T08:25:39;11.73;;;9.95;;
36923;SDS011;22841;50.252;18.688;2023-06-22T08:28:05;11.77;;;10.52;;
36923;SDS011;22841;50.252;18.688;2023-06-22T08:30:32;14.38;;;9.73;;
36923;SDS011;22841;50.252;18.688;2023-06-22T08:32:58;10.23;;;8.98;;
36923;SDS011;22841;50.252;18.688;2023-06-22T08:35:25;11.52;;;9.32;;
36923;SDS011;22841;50.252;18.688;2023-06-22T08:37:51;11.73;;;9.95;;
36923;SDS011;22841;50.252;18.688;2023-06-22T08:40:19;11.93;;;9.45;;
36923;SDS011;22841;50.252;18.688;2023-06-22T08:42:46;10.43;;;9.10;;
36923;SDS011;22841;50.252;18.688;2023-06-22T08:45:13;13.00;;;9.73;;
36923;SDS011;22841;50.252;18.688;2023-06-22T08:47:41;10.27;;;8.88;;
36923;SDS011;22841;50.252;18.688;2023-06-22T08:50:08;16.55;;;8.60;;
36923;SDS011;22841;50.252;18.688;2023-06-22T08:52:35;10.75;;;8.70;;
36923;SDS011;22841;50.252;18.688;2023-06-22T08:55:03;10.32;;;8.35;;
36923;SDS011;22841;50.252;18.688;2023-06-22T08:57:30;11.23;;;8.98;;
36923;SDS011;22841;50.252;18.688;2023-06-22T08:59:58;10.88;;;8.18;;
36923;SDS011;22841;50.252;18.688;2023-06-22T09:02:26;11.00;;;8.52;;
36923;SDS011;22841;50.252;18.688;2023-06-22T09:04:58;10.02;;;8.73;;
36923;SDS011;22841;50.252;18.688;2023-06-22T09:07:25;11.88;;;8.75;;
36923;SDS011;22841;50.252;18.688;2023-06-22T09:09:55;9.15;;;8.25;;
36923;SDS011;22841;50.252;18.688;2023-06-22T09:12:48;11.48;;;8.63;;
36923;SDS011;22841;50.252;18.688;2023-06-22T09:15:36;9.88;;;8.88;;
36923;SDS011;22841;50.252;18.688;2023-06-22T09:18:02;10.25;;;8.05;;
36923;SDS011;22841;50.252;18.688;2023-06-22T09:20:28;9.45;;;8.55;;
36923;SDS011;22841;50.252;18.688;2023-06-22T09:22:56;9.85;;;8.50;;
36923;SDS011;22841;50.252;18.688;2023-06-22T09:25:23;10.10;;;8.98;;
36923;SDS011;22841;50.252;18.688;2023-06-22T09:27:49;9.43;;;8.50;;
36923;SDS011;22841;50.252;18.688;2023-06-22T09:30:15;18.38;;;9.43;;
36923;SDS011;22841;50.252;18.688;2023-06-22T09:32:42;12.27;;;9.02;;
36923;SDS011;22841;50.252;18.688;2023-06-22T09:35:09;14.15;;;9.13;;
36923;SDS011;22841;50.252;18.688;2023-06-22T09:37:36;9.77;;;8.75;;
36923;SDS011;22841;50.252;18.688;2023-06-22T09:40:02;9.52;;;8.60;;
36923;SDS011;22841;50.252;18.688;2023-06-22T09:42:34;10.52;;;8.35;;
36923;SDS011;22841;50.252;18.688;2023-06-22T09:45:01;9.50;;;8.25;;
36923;SDS011;22841;50.252;18.688;2023-06-22T09:47:27;9.85;;;8.90;;
36923;SDS011;22841;50.252;18.688;2023-06-22T09:49:55;11.88;;;8.70;;
36923;SDS011;22841;50.252;18.688;2023-06-22T09:52:22;12.63;;;9.15;;
36923;SDS011;22841;50.252;18.688;2023-06-22T09:54:48;9.70;;;8.45;;
36923;SDS011;22841;50.252;18.688;2023-06-22T09:57:15;10.75;;;8.32;;
36923;SDS011;22841;50.252;18.688;2023-06-22T09:59:41;10.80;;;9.13;;
36923;SDS011;22841;50.252;18.688;2023-06-22T10:02:08;9.60;;;8.60;;
36923;SDS011;22841;50.252;18.688;2023-06-22T10:04:34;9.65;;;8.18;;
36923;SDS011;22841;50.252;18.688;2023-06-22T10:07:01;14.27;;;9.23;;
36923;SDS011;22841;50.252;18.688;2023-06-22T10:09:27;11.55;;;7.82;;
36923;SDS011;22841;50.252;18.688;2023-06-22T10:11:54;10.95;;;8.35;;
36923;SDS011;22841;50.252;18.688;2023-06-22T10:14:20;16.17;;;8.82;;
36923;SDS011;22841;50.252;18.688;2023-06-22T10:16:47;13.27;;;8.30;;
36923;SDS011;22841;50.252;18.688;2023-06-22T10:19:14;16.00;;;8.63;;
36923;SDS011;22841;50.252;18.688;2023-06-22T10:21:40;17.92;;;7.80;;
36923;SDS011;22841;50.252;18.688;2023-06-22T10:24:06;10.75;;;8.55;;
36923;SDS011;22841;50.252;18.688;2023-06-22T10:26:33;12.00;;;8.50;;
36923;SDS011;22841;50.252;18.688;2023-06-22T10:29:00;10.27;;;8.07;;
36923;SDS011;22841;50.252;18.688;2023-06-22T10:31:27;10.68;;;7.57;;
36923;SDS011;22841;50.252;18.688;2023-06-22T10:33:54;11.60;;;8.38;;
36923;SDS011;22841;50.252;18.688;2023-06-22T10:36:21;9.23;;;8.18;;
36923;SDS011;22841;50.252;18.688;2023-06-22T10:38:48;8.60;;;7.70;;
36923;SDS011;22841;50.252;18.688;2023-06-22T10:41:15;10.65;;;8.52;;
36923;SDS011;22841;50.252;18.688;2023-06-22T10:43:42;8.85;;;7.50;;
36923;SDS011;22841;50.252;18.688;2023-06-22T10:46:10;7.90;;;7.00;;
36923;SDS011;22841;50.252;18.688;2023-06-22T10:48:36;9.45;;;8.32;;
36923;SDS011;22841;50.252;18.688;2023-06-22T10:51:02;8.45;;;7.57;;
36923;SDS011;22841;50.252;18.688;2023-06-22T10:53:28;10.60;;;8.13;;
36923;SDS011;22841;50.252;18.688;2023-06-22T10:55:54;9.18;;;8.18;;
36923;SDS011;22841;50.252;18.688;2023-06-22T10:58:21;8.07;;;7.28;;
36923;SDS011;22841;50.252;18.688;2023-06-22T11:00:47;7.88;;;7.07;;
36923;SDS011;22841;50.252;18.688;2023-06-22T11:03:13;8.30;;;7.45;;
36923;SDS011;22841;50.252;18.688;2023-06-22T11:05:40;8.73;;;7.82;;
36923;SDS011;22841;50.252;18.688;2023-06-22T11:08:07;11.48;;;9.73;;
36923;SDS011;22841;50.252;18.688;2023-06-22T11:10:34;12.48;;;10.02;;
36923;SDS011;22841;50.252;18.688;2023-06-22T11:13:00;15.65;;;10.07;;
36923;SDS011;22841;50.252;18.688;2023-06-22T11:15:28;8.15;;;7.32;;
36923;SDS011;22841;50.252;18.688;2023-06-22T11:17:54;7.80;;;6.97;;
36923;SDS011;22841;50.252;18.688;2023-06-22T11:20:20;9.77;;;8.18;;
36923;SDS011;22841;50.252;18.688;2023-06-22T11:22:46;9.30;;;7.32;;
36923;SDS011;22841;50.252;18.688;2023-06-22T11:25:12;10.43;;;8.30;;
36923;SDS011;22841;50.252;18.688;2023-06-22T11:27:39;8.93;;;7.70;;
36923;SDS011;22841;50.252;18.688;2023-06-22T11:30:05;28.95;;;7.95;;
36923;SDS011;22841;50.252;18.688;2023-06-22T11:32:33;49.80;;;9.50;;
36923;SDS011;22841;50.252;18.688;2023-06-22T11:34:59;8.30;;;7.47;;
36923;SDS011;22841;50.252;18.688;2023-06-22T11:37:26;15.13;;;7.82;;
36923;SDS011;22841;50.252;18.688;2023-06-22T11:39:52;9.98;;;7.20;;
36923;SDS011;22841;50.252;18.688;2023-06-22T11:42:20;12.27;;;7.90;;
36923;SDS011;22841;50.252;18.688;2023-06-22T11:44:47;10.93;;;7.57;;
36923;SDS011;22841;50.252;18.688;2023-06-22T11:47:13;9.35;;;7.68;;
36923;SDS011;22841;50.252;18.688;2023-06-22T11:49:39;10.60;;;7.93;;
36923;SDS011;22841;50.252;18.688;2023-06-22T11:52:06;8.38;;;7.13;;
36923;SDS011;22841;50.252;18.688;2023-06-22T11:54:32;8.90;;;8.00;;
36923;SDS011;22841;50.252;18.688;2023-06-22T11:56:59;9.50;;;7.80;;
36923;SDS011;22841;50.252;18.688;2023-06-22T11:59:25;9.48;;;7.30;;
36923;SDS011;22841;50.252;18.688;2023-06-22T12:01:51;9.60;;;8.60;;
36923;SDS011;22841;50.252;18.688;2023-06-22T12:04:17;13.13;;;8.30;;
36923;SDS011;22841;50.252;18.688;2023-06-22T12:06:43;10.68;;;7.57;;
36923;SDS011;22841;50.252;18.688;2023-06-22T12:09:09;8.45;;;7.00;;
36923;SDS011;22841;50.252;18.688;2023-06-22T12:11:36;9.27;;;7.57;;
36923;SDS011;22841;50.252;18.688;2023-06-22T12:14:02;8.00;;;7.07;;
36923;SDS011;22841;50.252;18.688;2023-06-22T12:16:29;8.30;;;6.75;;
36923;SDS011;22841;50.252;18.688;2023-06-22T12:18:56;7.95;;;6.43;;
36923;SDS011;22841;50.252;18.688;2023-06-22T12:21:22;6.57;;;5.97;;
36923;SDS011;22841;50.252;18.688;2023-06-22T12:23:48;7.05;;;6.45;;
36923;SDS011;22841;50.252;18.688;2023-06-22T12:26:14;8.40;;;6.57;;
36923;SDS011;22841;50.252;18.688;2023-06-22T12:28:40;10.73;;;7.32;;
36923;SDS011;22841;50.252;18.688;2023-06-22T12:31:07;9.45;;;7.38;;
36923;SDS011;22841;50.252;18.688;2023-06-22T12:33:33;11.30;;;6.93;;
36923;SDS011;22841;50.252;18.688;2023-06-22T12:35:59;7.90;;;7.15;;
36923;SDS011;22841;50.252;18.688;2023-06-22T12:38:25;11.13;;;7.32;;
36923;SDS011;22841;50.252;18.688;2023-06-22T12:40:51;7.47;;;6.53;;
36923;SDS011;22841;50.252;18.688;2023-06-22T12:43:18;10.48;;;6.63;;
36923;SDS011;22841;50.252;18.688;2023-06-22T12:45:44;12.85;;;6.95;;
36923;SDS011;22841;50.252;18.688;2023-06-22T12:48:10;10.43;;;7.10;;
36923;SDS011;22841;50.252;18.688;2023-06-22T12:50:38;11.25;;;6.43;;
36923;SDS011;22841;50.252;18.688;2023-06-22T12:53:04;7.00;;;6.35;;
36923;SDS011;22841;50.252;18.688;2023-06-22T12:55:31;6.22;;;5.75;;
36923;SDS011;22841;50.252;18.688;2023-06-22T12:57:58;7.60;;;6.45;;
36923;SDS011;22841;50.252;18.688;2023-06-22T13:00:24;9.25;;;6.70;;
36923;SDS011;22841;50.252;18.688;2023-06-22T13:02:50;6.70;;;6.10;;
36923;SDS011;22841;50.252;18.688;2023-06-22T13:05:16;6.18;;;5.57;;
36923;SDS011;22841;50.252;18.688;2023-06-22T13:07:44;7.75;;;6.20;;
36923;SDS011;22841;50.252;18.688;2023-06-22T13:10:13;8.73;;;5.95;;
36923;SDS011;22841;50.252;18.688;2023-06-22T13:12:40;7.45;;;6.10;;
36923;SDS011;22841;50.252;18.688;2023-06-22T13:15:08;11.05;;;6.40;;
36923;SDS011;22841;50.252;18.688;2023-06-22T13:17:35;8.75;;;6.18;;
36923;SDS011;22841;50.252;18.688;2023-06-22T13:20:02;15.38;;;6.68;;
36923;SDS011;22841;50.252;18.688;2023-06-22T13:22:31;9.25;;;6.05;;
36923;SDS011;22841;50.252;18.688;2023-06-22T13:24:58;16.00;;;6.85;;
36923;SDS011;22841;50.252;18.688;2023-06-22T13:27:25;7.40;;;6.60;;
36923;SDS011;22841;50.252;18.688;2023-06-22T13:29:52;7.82;;;7.03;;
36923;SDS011;22841;50.252;18.688;2023-06-22T13:32:18;6.95;;;6.25;;
36923;SDS011;22841;50.252;18.688;2023-06-22T13:34:44;9.52;;;6.80;;
36923;SDS011;22841;50.252;18.688;2023-06-22T13:37:11;11.48;;;10.27;;
36923;SDS011;22841;50.252;18.688;2023-06-22T13:39:37;9.10;;;7.05;;
36923;SDS011;22841;50.252;18.688;2023-06-22T13:42:04;24.67;;;8.43;;
36923;SDS011;22841;50.252;18.688;2023-06-22T13:44:32;8.82;;;6.80;;
36923;SDS011;22841;50.252;18.688;2023-06-22T13:46:58;8.02;;;6.70;;
36923;SDS011;22841;50.252;18.688;2023-06-22T13:49:24;8.82;;;7.97;;
36923;SDS011;22841;50.252;18.688;2023-06-22T13:51:51;8.27;;;6.70;;
36923;SDS011;22841;50.252;18.688;2023-06-22T13:54:17;8.35;;;7.55;;
36923;SDS011;22841;50.252;18.688;2023-06-22T13:56:43;7.65;;;6.95;;
36923;SDS011;22841;50.252;18.688;2023-06-22T13:59:09;9.82;;;7.22;;
36923;SDS011;22841;50.252;18.688;2023-06-22T14:01:36;9.38;;;7.88;;
36923;SDS011;22841;50.252;18.688;2023-06-22T14:04:04;8.38;;;7.47;;
36923;SDS011;22841;50.252;18.688;2023-06-22T14:06:30;8.45;;;7.15;;
36923;SDS011;22841;50.252;18.688;2023-06-22T14:08:56;10.35;;;6.85;;
36923;SDS011;22841;50.252;18.688;2023-06-22T14:11:24;8.23;;;6.47;;
36923;SDS011;22841;50.252;18.688;2023-06-22T14:13:50;15.63;;;7.25;;
36923;SDS011;22841;50.252;18.688;2023-06-22T14:16:17;8.52;;;7.63;;
36923;SDS011;22841;50.252;18.688;2023-06-22T14:18:44;8.25;;;6.32;;
36923;SDS011;22841;50.252;18.688;2023-06-22T14:21:10;7.15;;;6.47;;
36923;SDS011;22841;50.252;18.688;2023-06-22T14:23:36;10.13;;;6.43;;
36923;SDS011;22841;50.252;18.688;2023-06-22T14:26:03;16.45;;;7.28;;
36923;SDS011;22841;50.252;18.688;2023-06-22T14:28:29;9.93;;;7.13;;